createdAt,value
2023-04-02T00:02:20.797Z,1.60
2023-04-02T00:07:33.348Z,1.60
2023-04-02T00:12:35.368Z,1.77
2023-04-02T00:17:37.123Z,1.70
2023-04-02T00:22:44.579Z,1.80
2023-04-02T00:27:46.637Z,1.73
2023-04-02T00:32:48.905Z,1.80
2023-04-02T00:37:51.784Z,1.70
2023-04-02T00:43:00.081Z,2.03
2023-04-02T00:48:31.372Z,1.90
2023-04-02T00:53:34.838Z,2.20
2023-04-02T00:58:37.485Z,1.98
2023-04-02T01:03:41.240Z,2.30
2023-04-02T01:08:49.153Z,2.58
2023-04-02T01:14:06.890Z,2.70
2023-04-02T01:19:27.255Z,3.83
2023-04-02T01:24:34.831Z,3.47
2023-04-02T01:29:42.231Z,3.70
2023-04-02T01:34:47.703Z,3.17
2023-04-02T01:40:14.613Z,3.85
2023-04-02T01:45:19.653Z,3.72
2023-04-02T01:50:24.689Z,4.18
2023-04-02T01:55:31.614Z,5.78
2023-04-02T02:00:37.490Z,10.02
2023-04-02T02:05:40.311Z,9.10
2023-04-02T02:10:42.103Z,9.77
2023-04-02T02:15:44.659Z,8.90
2023-04-02T02:20:47.336Z,6.05
2023-04-02T02:25:49.553Z,6.55
2023-04-02T02:30:58.812Z,6.38
2023-04-02T02:36:24.669Z,10.80
2023-04-02T02:41:34.566Z,7.65
2023-04-02T02:46:43.338Z,7.43
2023-04-02T02:51:49.264Z,7.13
2023-04-02T02:57:03.413Z,6.38
2023-04-02T03:02:09.319Z,6.07
2023-04-02T03:07:11.917Z,7.07
2023-04-02T03:12:19.586Z,9.02
2023-04-02T03:17:45.517Z,6.88
2023-04-02T03:23:19.205Z,7.90
2023-04-02T03:28:27.656Z,8.10
2023-04-02T03:33:35.861Z,7.30
2023-04-02T03:39:18.627Z,8.00
2023-04-02T03:44:44.757Z,7.05
2023-04-02T03:49:49.750Z,8.40
2023-04-02T03:54:53.802Z,6.35
2023-04-02T04:00:17.089Z,7.95
2023-04-02T04:05:39.798Z,8.48
2023-04-02T04:10:43.804Z,17.35
2023-04-02T04:15:45.745Z,11.65
2023-04-02T04:20:56.569Z,13.95
2023-04-02T04:26:12.523Z,7.47
2023-04-02T04:31:34.743Z,8.20
2023-04-02T04:37:01.713Z,8.55
2023-04-02T04:42:13.111Z,7.07
2023-04-02T04:47:23.176Z,6.88
2023-04-02T04:52:33.021Z,7.30
2023-04-02T04:57:38.081Z,6.07
2023-04-02T05:03:03.401Z,8.57
2023-04-02T05:08:22.564Z,6.82
2023-04-02T05:13:33.965Z,5.72
2023-04-02T05:18:58.456Z,3.28
2023-04-02T05:24:28.990Z,1.40
2023-04-02T05:29:38.655Z,1.13
2023-04-02T05:34:42.971Z,1.37
2023-04-02T05:39:46.422Z,1.10
2023-04-02T05:45:20.967Z,1.00
2023-04-02T05:50:46.942Z,0.90
2023-04-02T05:56:20.187Z,1.10
2023-04-02T06:01:33.773Z,1.10
2023-04-02T06:06:43.762Z,1.00
2023-04-02T06:11:58.135Z,1.00
2023-04-02T06:17:00.493Z,1.05
2023-04-02T06:22:17.747Z,1.00
2023-04-02T06:27:24.573Z,1.00
2023-04-02T06:32:27.443Z,1.00
2023-04-02T06:37:40.300Z,1.10
2023-04-02T06:42:59.619Z,0.88
2023-04-02T06:48:17.954Z,1.00
2023-04-02T06:53:27.748Z,0.80
2023-04-02T06:58:31.219Z,0.98
2023-04-02T07:03:34.302Z,0.93
2023-04-02T07:08:44.040Z,0.80
2023-04-02T07:13:46.492Z,0.82
2023-04-02T07:18:49.131Z,0.90
2023-04-02T07:23:51.599Z,0.90
2023-04-02T07:28:54.378Z,1.00
2023-04-02T07:33:59.865Z,1.00
2023-04-02T07:39:02.161Z,1.00
2023-04-02T07:44:04.476Z,1.13
2023-04-02T07:49:06.475Z,1.00
2023-04-02T07:54:10.283Z,0.95
2023-04-02T07:59:12.175Z,0.90
2023-04-02T08:04:22.177Z,1.00
2023-04-02T08:09:24.042Z,1.10
2023-04-02T08:14:26.401Z,1.00
2023-04-02T08:19:28.264Z,0.90
2023-04-02T08:24:29.988Z,1.00
2023-04-02T08:29:32.488Z,1.05
2023-04-02T08:34:34.213Z,1.00
2023-04-02T08:39:35.959Z,1.30
2023-04-02T08:44:52.032Z,1.13
2023-04-02T08:49:58.998Z,1.10
2023-04-02T08:55:02.758Z,1.20
2023-04-02T09:00:16.597Z,1.20
2023-04-02T09:05:28.301Z,1.40
2023-04-02T09:10:54.856Z,1.20
2023-04-02T09:16:07.323Z,1.30
2023-04-02T09:21:21.271Z,1.20
2023-04-02T09:26:27.244Z,1.23
2023-04-02T09:31:41.646Z,1.50
2023-04-02T09:36:43.544Z,1.60
2023-04-02T09:41:55.694Z,1.40
2023-04-02T09:47:23.296Z,1.70
2023-04-02T09:52:29.850Z,1.53
2023-04-02T09:57:33.385Z,1.80
2023-04-02T10:02:35.487Z,1.50
2023-04-02T10:07:43.921Z,1.80
2023-04-02T10:12:49.534Z,1.60
2023-04-02T10:18:06.941Z,1.70
2023-04-02T10:23:16.687Z,2.00
2023-04-02T10:28:46.090Z,2.00
2023-04-02T10:34:10.031Z,2.17
2023-04-02T10:39:34.257Z,1.85
2023-04-02T10:44:51.636Z,1.90
2023-04-02T10:50:18.525Z,1.90
2023-04-02T10:55:29.032Z,1.90
2023-04-02T11:00:34.994Z,1.90
2023-04-02T11:05:46.751Z,1.90
2023-04-02T11:10:53.398Z,1.85
2023-04-02T11:15:55.561Z,2.05
2023-04-02T11:21:00.158Z,2.00
2023-04-02T11:26:47.584Z,2.13
2023-04-02T11:31:51.616Z,2.20
2023-04-02T11:36:53.843Z,2.10
2023-04-02T11:42:04.831Z,2.40
2023-04-02T11:52:25.978Z,2.00
2023-04-02T11:57:42.522Z,2.20
2023-04-02T12:03:17.187Z,2.00
2023-04-02T12:09:09.115Z,1.98
2023-04-02T12:14:46.547Z,2.15
2023-04-02T12:19:50.482Z,2.40
2023-04-02T12:24:56.580Z,2.35
2023-04-02T12:30:21.517Z,2.17
2023-04-02T12:35:34.268Z,2.20
2023-04-02T12:40:36.197Z,2.20
2023-04-02T12:45:38.839Z,2.00
2023-04-02T12:50:41.910Z,1.92
2023-04-02T12:55:48.624Z,2.00
2023-04-02T13:00:50.874Z,1.83
2023-04-02T13:05:57.351Z,1.80
2023-04-02T13:11:01.751Z,2.00
2023-04-02T13:16:14.962Z,1.60
2023-04-02T13:21:16.638Z,1.50
2023-04-02T13:26:21.997Z,1.67
2023-04-02T13:31:23.889Z,1.60
2023-04-02T13:36:26.631Z,1.80
2023-04-02T13:41:31.069Z,1.98
2023-04-02T13:46:34.759Z,1.80
2023-04-02T13:51:39.689Z,1.75
2023-04-02T13:56:41.444Z,1.70
2023-04-02T14:01:45.662Z,1.77
2023-04-02T14:06:56.657Z,1.75
2023-04-02T14:17:22.186Z,1.88
2023-04-02T14:22:53.281Z,1.80
2023-04-02T14:28:03.684Z,2.00
2023-04-02T14:33:18.072Z,2.03
2023-04-02T14:38:51.218Z,2.10
2023-04-02T14:43:58.256Z,2.28
2023-04-02T14:49:09.027Z,2.13
2023-04-02T14:54:30.186Z,2.20
2023-04-02T14:59:39.427Z,2.30
2023-04-02T15:04:45.424Z,2.35
2023-04-02T15:09:53.281Z,2.20
2023-04-02T15:15:02.900Z,2.40
2023-04-02T15:20:15.961Z,2.10
2023-04-02T15:25:36.496Z,2.10
2023-04-02T15:30:43.288Z,2.20
2023-04-02T15:36:00.463Z,2.38
2023-04-02T15:41:26.570Z,2.10
2023-04-02T15:46:50.516Z,1.98
2023-04-02T15:52:05.524Z,2.10
2023-04-02T15:57:29.217Z,1.85
2023-04-02T16:02:58.523Z,2.03
2023-04-02T16:08:31.670Z,2.08
2023-04-02T16:13:36.596Z,2.00
2023-04-02T16:18:55.739Z,1.80
2023-04-02T16:23:57.588Z,1.88
2023-04-02T16:29:11.479Z,2.00
2023-04-02T16:34:36.570Z,2.10
2023-04-02T16:39:45.712Z,1.95
2023-04-02T16:45:11.966Z,2.00
2023-04-02T16:50:30.865Z,1.95
2023-04-02T16:55:48.737Z,2.67
2023-04-02T17:01:01.009Z,5.88
2023-04-02T17:06:09.456Z,1.95
2023-04-02T17:11:37.332Z,2.28
2023-04-02T17:16:44.025Z,2.58
2023-04-02T17:21:48.661Z,2.20
2023-04-02T17:26:57.068Z,2.10
2023-04-02T17:32:01.949Z,2.10
2023-04-02T17:37:33.213Z,2.63
2023-04-02T17:42:53.832Z,2.38
2023-04-02T17:48:03.266Z,2.25
2023-04-02T17:53:32.133Z,2.20
2023-04-02T17:58:42.694Z,2.33
2023-04-02T18:03:53.343Z,2.22
2023-04-02T18:09:29.144Z,2.53
2023-04-02T18:14:42.960Z,2.30
2023-04-02T18:19:53.386Z,2.42
2023-04-02T18:25:03.786Z,2.20
2023-04-02T18:30:34.300Z,2.83
2023-04-02T18:36:22.864Z,2.38
2023-04-02T18:42:05.491Z,2.85
2023-04-02T18:47:07.236Z,2.30
2023-04-02T18:52:18.852Z,2.33
2023-04-02T18:57:32.207Z,2.20
2023-04-02T19:02:34.207Z,2.58
2023-04-02T19:07:40.745Z,2.30
2023-04-02T19:12:42.457Z,2.10
2023-04-02T19:17:51.655Z,2.38
2023-04-02T19:22:59.549Z,1.90
2023-04-02T19:28:13.334Z,2.10
2023-04-02T19:33:24.076Z,2.40
2023-04-02T19:38:53.637Z,2.53
2023-04-02T19:43:56.048Z,1.98
2023-04-02T19:49:05.388Z,1.90
2023-04-02T19:54:07.762Z,1.90
2023-04-02T20:04:18.706Z,1.80
2023-04-02T20:09:21.200Z,2.03
2023-04-02T20:14:23.371Z,2.00
2023-04-02T20:19:25.277Z,1.80
2023-04-02T20:24:27.022Z,1.85
2023-04-02T20:29:30.752Z,1.88
2023-04-02T20:34:32.614Z,1.73
2023-04-02T20:39:34.587Z,1.75
2023-04-02T20:44:37.668Z,1.90
2023-04-02T20:49:39.414Z,1.75
2023-04-02T20:54:41.205Z,2.17
2023-04-02T20:59:42.936Z,1.88
2023-04-02T21:04:44.757Z,1.90
2023-04-02T21:09:46.560Z,1.88
2023-04-02T21:14:49.650Z,2.00
2023-04-02T21:19:51.447Z,2.03
2023-04-02T21:24:53.227Z,2.10
2023-04-02T21:29:55.090Z,2.08
2023-04-02T21:34:56.880Z,2.28
2023-04-02T21:39:58.692Z,2.30
2023-04-02T21:45:00.502Z,2.05
2023-04-02T21:50:02.264Z,1.98
2023-04-02T21:55:04.208Z,2.28
2023-04-02T22:00:09.258Z,2.08
2023-04-02T22:05:11.159Z,2.17
2023-04-02T22:10:12.892Z,2.00
2023-04-02T22:15:14.671Z,2.10
2023-04-02T22:20:16.505Z,2.10
2023-04-02T22:25:18.283Z,2.20
2023-04-02T22:30:20.077Z,2.30
2023-04-02T22:35:21.784Z,2.28
2023-04-02T22:40:23.517Z,2.30
2023-04-02T22:45:25.242Z,2.40
2023-04-02T22:50:27.218Z,3.72
2023-04-02T22:55:28.952Z,3.40
2023-04-02T23:00:31.040Z,3.55
2023-04-02T23:05:33.038Z,2.67
2023-04-02T23:10:34.891Z,3.05
2023-04-02T23:15:36.858Z,2.67
2023-04-02T23:20:38.723Z,2.70
2023-04-02T23:25:41.322Z,2.92
2023-04-02T23:30:44.376Z,2.53
2023-04-02T23:35:46.151Z,2.38
2023-04-02T23:40:47.857Z,2.60
2023-04-02T23:45:50.600Z,3.10
2023-04-02T23:50:52.327Z,3.15
2023-04-02T23:55:54.063Z,3.10
